Time;durP1;ratioP1;P1;durP2;ratioP2;P2;SDS_P1;SDS_P2;PMS_P1;PMS_P2;Temp;Humidity;BMP_temperature;BMP_pressure;BME280_temperature;BME280_humidity;BME280_pressure;Samples;Min_cycle;Max_cycle;Signal;HPM_P1;HPM_P2
2023/02/15 00:01:41;;;;;;;36.95;30.60;;;20.30;53.30;;;;;;4957483;28;87864;-87
2023/02/15 00:04:08;;;;;;;37.10;30.67;;;20.30;53.70;;;;;;4958363;28;87511;-87
2023/02/15 00:06:34;;;;;;;36.75;30.67;;;20.20;53.50;;;;;;4958169;28;88549;-87
2023/02/15 00:09:00;;;;;;;42.15;32.20;;;20.20;53.70;;;;;;4957578;28;88029;-87
2023/02/15 00:11:49;;;;;;;39.20;32.05;;;20.20;53.70;;;;;;4959239;28;87370;-87
2023/02/15 00:14:23;;;;;;;37.78;31.35;;;20.20;53.90;;;;;;4958117;28;92068;-87
2023/02/15 00:16:52;;;;;;;36.55;29.60;;;20.20;53.90;;;;;;4956124;28;88595;-87
2023/02/15 00:19:20;;;;;;;34.20;28.77;;;20.20;53.90;;;;;;4958272;28;88377;-87
2023/02/15 00:21:47;;;;;;;35.50;29.70;;;20.10;53.80;;;;;;4925213;28;87302;-87
2023/02/15 00:24:15;;;;;;;37.50;30.38;;;20.10;53.90;;;;;;4939827;28;90078;-87
2023/02/15 00:26:42;;;;;;;36.55;29.50;;;20.10;54.00;;;;;;4945048;28;90122;-87
2023/02/15 00:29:09;;;;;;;36.35;29.52;;;20.20;54.20;;;;;;4951049;28;89435;-87
2023/02/15 00:43:42;;;;;;;34.25;29.15;;;20.00;54.20;;;;;;4934573;28;88142;-87
2023/02/15 00:46:08;;;;;;;34.20;27.35;;;20.00;54.30;;;;;;4957201;28;87686;-87
2023/02/15 00:48:34;;;;;;;33.38;28.38;;;20.00;54.30;;;;;;4957705;28;87480;-87
2023/02/15 00:51:00;;;;;;;33.47;28.52;;;20.00;54.30;;;;;;4957211;28;88537;-87
2023/02/15 00:54:07;;;;;;;34.00;27.85;;;19.90;54.30;;;;;;4958125;28;87936;-87
2023/02/15 00:56:32;;;;;;;35.75;28.90;;;19.90;54.10;;;;;;4956892;28;88633;-87
2023/02/15 00:58:58;;;;;;;33.47;27.65;;;19.90;54.40;;;;;;4957499;28;87396;-87
2023/02/15 01:01:25;;;;;;;36.35;28.83;;;19.90;54.10;;;;;;4957061;28;87687;-87
2023/02/15 01:03:51;;;;;;;35.15;28.52;;;19.90;54.30;;;;;;4956486;28;88387;-87
2023/02/15 01:19:44;;;;;;;32.15;26.73;;;19.80;54.30;;;;;;4955773;28;87501;-87
2023/02/15 01:22:10;;;;;;;35.60;28.25;;;19.80;54.60;;;;;;4957094;28;87554;-87
2023/02/15 01:24:35;;;;;;;33.60;27.50;;;19.80;54.40;;;;;;4956167;28;89227;-87
2023/02/15 01:27:06;;;;;;;29.65;25.20;;;19.70;54.50;;;;;;4956458;28;88171;-87
2023/02/15 01:29:31;;;;;;;30.05;25.60;;;19.70;54.50;;;;;;4957347;28;87625;-87
2023/02/15 01:31:57;;;;;;;30.40;25.67;;;19.80;54.50;;;;;;4948699;28;89450;-87
2023/02/15 01:34:23;;;;;;;29.88;25.15;;;19.70;54.60;;;;;;4956683;28;88014;-87
2023/02/15 01:36:48;;;;;;;30.60;24.85;;;19.70;54.50;;;;;;4951866;28;91225;-87
2023/02/15 01:39:14;;;;;;;29.23;26.00;;;19.70;54.40;;;;;;4952930;28;87289;-86
2023/02/15 01:41:40;;;;;;;31.23;25.35;;;19.70;54.40;;;;;;4951515;28;87419;-87
2023/02/15 01:44:43;;;;;;;30.35;24.58;;;19.70;54.40;;;;;;4952153;28;88126;-86
2023/02/15 01:47:23;;;;;;;29.02;24.63;;;19.70;54.80;;;;;;4953691;28;93592;-87
2023/02/15 01:49:54;;;;;;;30.73;25.35;;;19.70;54.30;;;;;;4956364;28;88262;-87
2023/02/15 01:52:20;;;;;;;29.50;25.13;;;19.60;54.50;;;;;;4956390;28;87452;-87
2023/02/15 01:54:52;;;;;;;34.95;27.58;;;19.60;54.40;;;;;;4956419;28;88575;-87
2023/02/15 01:57:23;;;;;;;31.95;26.27;;;19.60;54.30;;;;;;4956382;28;88139;-87
2023/02/15 01:59:53;;;;;;;30.90;24.63;;;19.60;54.40;;;;;;4956482;28;87377;-86
2023/02/15 02:02:27;;;;;;;29.17;24.98;;;19.60;54.40;;;;;;4957213;28;87444;-87
2023/02/15 02:08:15;;;;;;;31.60;25.63;;;19.60;54.50;;;;;;4955838;28;91503;-87
2023/02/15 02:10:40;;;;;;;31.30;24.88;;;19.60;54.40;;;;;;4956504;28;87701;-87
2023/02/15 02:13:06;;;;;;;30.05;24.10;;;19.50;54.60;;;;;;4955746;28;87588;-86
2023/02/15 02:15:35;;;;;;;30.30;24.80;;;19.50;54.40;;;;;;4944914;28;89181;-88
2023/02/15 02:18:17;;;;;;;28.80;23.17;;;19.50;54.40;;;;;;4955571;28;88979;-87
2023/02/15 02:21:24;;;;;;;28.92;25.45;;;19.50;54.40;;;;;;4956498;28;87444;-87
2023/02/15 02:24:10;;;;;;;26.88;23.13;;;19.50;54.40;;;;;;4857430;29;87409;-86
2023/02/15 02:26:47;;;;;;;26.50;23.33;;;19.50;54.40;;;;;;4819905;29;89185;-86
2023/02/15 02:29:30;;;;;;;26.30;22.55;;;19.50;54.60;;;;;;4821290;29;87901;-86
2023/02/15 02:39:17;;;;;;;28.23;23.70;;;19.50;54.50;;;;;;4838717;29;90788;-86
2023/02/15 02:41:54;;;;;;;26.65;21.60;;;19.40;54.60;;;;;;4795170;29;90287;-87
2023/02/15 02:44:39;;;;;;;26.25;21.83;;;19.40;54.50;;;;;;4795655;29;88427;-87
2023/02/15 02:47:26;;;;;;;25.25;21.38;;;19.40;54.40;;;;;;4795579;29;91888;-87
2023/02/15 03:10:05;;;;;;;26.58;22.58;;;19.30;54.30;;;;;;4878757;28;87102;-86
2023/02/15 03:12:37;;;;;;;25.52;22.20;;;19.30;54.50;;;;;;4878545;28;87397;-86
2023/02/15 03:15:14;;;;;;;25.85;21.00;;;19.30;54.40;;;;;;4895479;28;89477;-86
2023/02/15 03:17:46;;;;;;;25.73;22.10;;;19.30;54.60;;;;;;4958817;28;89549;-86
2023/02/15 03:20:34;;;;;;;25.17;20.27;;;19.30;54.50;;;;;;4959825;28;86919;-87
2023/02/15 03:23:04;;;;;;;25.42;22.02;;;19.20;54.40;;;;;;4940825;28;94216;-87
2023/02/15 03:25:56;;;;;;;25.25;22.15;;;19.30;54.50;;;;;;4958717;28;89163;-87
2023/02/15 03:28:31;;;;;;;22.60;19.48;;;19.20;54.60;;;;;;4958351;28;87349;-87
2023/02/15 03:31:01;;;;;;;24.08;20.80;;;19.20;54.50;;;;;;4958776;28;87620;-87
2023/02/15 03:34:00;;;;;;;26.00;20.50;;;19.20;54.80;;;;;;4959161;28;86596;-87
2023/02/15 03:36:41;;;;;;;23.57;20.03;;;19.20;54.30;;;;;;4958360;28;88835;-87
2023/02/15 03:39:12;;;;;;;24.10;21.38;;;19.20;54.30;;;;;;4958782;28;88138;-87
2023/02/15 03:41:46;;;;;;;23.73;21.10;;;19.20;54.40;;;;;;4958417;28;88262;-87
2023/02/15 04:03:38;;;;;;;21.35;18.13;;;19.10;54.30;;;;;;4957760;28;87606;-86
2023/02/15 04:06:04;;;;;;;23.70;19.75;;;19.10;54.50;;;;;;4957691;28;87470;-87
2023/02/15 04:11:14;;;;;;;22.60;19.35;;;19.10;54.40;;;;;;4958267;28;88361;-87
2023/02/15 04:13:39;;;;;;;23.23;20.60;;;19.10;54.40;;;;;;4957621;28;88940;-87
2023/02/15 04:25:33;;;;;;;23.27;19.58;;;19.10;54.40;;;;;;4957877;28;87314;-87
2023/02/15 04:27:58;;;;;;;21.15;18.80;;;19.10;54.40;;;;;;4958042;28;86867;-87
2023/02/15 04:30:26;;;;;;;20.83;18.27;;;19.00;54.40;;;;;;4958063;28;87531;-86
2023/02/15 04:36:13;;;;;;;21.05;18.27;;;19.00;54.30;;;;;;4956376;28;87246;-86
2023/02/15 04:38:39;;;;;;;19.83;17.13;;;19.00;54.20;;;;;;4957049;28;88536;-86
2023/02/15 04:41:04;;;;;;;20.90;17.95;;;19.00;54.20;;;;;;4958710;28;87333;-87
2023/02/15 04:43:30;;;;;;;22.38;18.77;;;19.00;54.20;;;;;;4957223;28;89012;-86
2023/02/15 04:45:56;;;;;;;21.67;18.80;;;19.00;54.30;;;;;;4957488;28;87521;-87
2023/02/15 04:48:30;;;;;;;21.48;18.15;;;19.00;54.30;;;;;;4957651;28;87424;-87
2023/02/15 04:50:56;;;;;;;22.10;19.27;;;19.00;54.20;;;;;;4957399;28;87395;-87
2023/02/15 04:53:21;;;;;;;20.90;18.20;;;18.90;54.30;;;;;;4958424;28;88613;-86
2023/02/15 04:55:47;;;;;;;21.45;18.27;;;18.90;54.50;;;;;;4957625;28;87726;-87
2023/02/15 04:58:13;;;;;;;20.33;18.13;;;19.00;54.20;;;;;;4957474;28;86895;-86
2023/02/15 05:00:58;;;;;;;20.23;18.10;;;19.00;54.20;;;;;;4947386;28;91914;-87
2023/02/15 05:03:24;;;;;;;19.73;17.63;;;18.90;54.10;;;;;;4956053;28;89510;-86
2023/02/15 05:05:50;;;;;;;20.88;18.38;;;18.90;54.00;;;;;;4957129;28;89489;-86
2023/02/15 05:08:16;;;;;;;21.08;17.77;;;18.90;54.00;;;;;;4957970;28;87312;-87
2023/02/15 05:10:42;;;;;;;19.63;16.70;;;19.00;54.00;;;;;;4957689;28;87000;-87
2023/02/15 05:13:08;;;;;;;21.45;17.95;;;18.90;54.00;;;;;;4956878;28;88249;-87
2023/02/15 05:15:33;;;;;;;21.15;17.80;;;18.90;53.90;;;;;;4957230;28;88424;-87
2023/02/15 05:17:59;;;;;;;20.13;17.40;;;18.90;53.90;;;;;;4956195;28;87256;-87
2023/02/15 05:20:25;;;;;;;19.60;17.17;;;18.90;53.90;;;;;;4957975;28;87311;-87
2023/02/15 05:22:54;;;;;;;19.80;17.35;;;18.90;53.90;;;;;;4957109;28;87470;-87
2023/02/15 05:28:19;;;;;;;20.67;17.02;;;18.90;54.10;;;;;;4956262;28;88166;-87
2023/02/15 05:30:49;;;;;;;20.70;16.73;;;18.90;54.20;;;;;;4947893;28;87513;-87
2023/02/15 05:33:16;;;;;;;18.58;16.35;;;18.80;54.10;;;;;;4956688;28;91418;-87
2023/02/15 05:35:41;;;;;;;18.98;16.65;;;18.80;53.90;;;;;;4956968;28;87933;-87
2023/02/15 05:38:10;;;;;;;19.65;16.17;;;18.80;54.00;;;;;;4957747;28;87493;-87
2023/02/15 05:40:35;;;;;;;18.92;16.92;;;18.80;53.90;;;;;;4956515;28;87428;-87
2023/02/15 05:43:01;;;;;;;18.55;16.48;;;18.80;54.00;;;;;;4956574;28;87363;-87
2023/02/15 05:45:27;;;;;;;21.00;18.05;;;18.80;53.90;;;;;;4956809;28;88398;-87
2023/02/15 05:47:52;;;;;;;17.88;15.82;;;18.80;53.90;;;;;;4957161;28;86962;-87
2023/02/15 05:53:40;;;;;;;19.85;16.23;;;18.80;54.00;;;;;;4954895;28;92669;-86
2023/02/15 05:56:08;;;;;;;18.67;16.55;;;18.80;54.00;;;;;;4939041;28;91348;-87
2023/02/15 05:58:39;;;;;;;18.98;16.58;;;18.80;54.00;;;;;;4956301;28;87421;-86
2023/02/15 06:01:23;;;;;;;19.35;17.23;;;18.70;54.10;;;;;;4956319;28;87472;-86
2023/02/15 06:03:48;;;;;;;18.08;15.73;;;18.70;53.90;;;;;;4956393;28;88340;-87
2023/02/15 06:06:24;;;;;;;19.42;16.00;;;18.70;54.00;;;;;;4956650;28;87399;-87
2023/02/15 06:08:49;;;;;;;19.38;16.38;;;18.70;54.00;;;;;;4956738;28;87479;-87
2023/02/15 06:11:15;;;;;;;17.05;15.25;;;18.70;53.90;;;;;;4957527;28;87463;-87
2023/02/15 06:20:25;;;;;;;17.08;15.00;;;18.70;54.00;;;;;;4954650;28;88406;-87
2023/02/15 06:22:50;;;;;;;17.33;15.43;;;18.70;53.90;;;;;;4957111;28;88437;-86
2023/02/15 06:25:19;;;;;;;17.52;15.00;;;18.70;54.00;;;;;;4956011;28;88361;-87
2023/02/15 06:27:44;;;;;;;18.20;15.80;;;18.60;54.10;;;;;;4956013;28;87840;-86
2023/02/15 06:36:54;;;;;;;16.00;14.10;;;18.60;54.00;;;;;;4954991;28;86945;-87
2023/02/15 06:39:19;;;;;;;18.05;15.43;;;18.60;54.00;;;;;;4956091;28;88470;-87
2023/02/15 06:41:45;;;;;;;16.98;14.98;;;18.60;54.00;;;;;;4956322;28;87619;-87
2023/02/15 06:44:10;;;;;;;16.38;14.55;;;18.60;54.00;;;;;;4956803;28;87547;-86
2023/02/15 06:46:54;;;;;;;17.85;14.73;;;18.60;54.20;;;;;;4955252;28;89195;-86
2023/02/15 06:49:20;;;;;;;17.35;14.38;;;18.60;53.90;;;;;;4955331;28;89702;-86
2023/02/15 06:51:45;;;;;;;16.65;14.85;;;18.60;54.10;;;;;;4955692;28;87997;-86
2023/02/15 06:54:11;;;;;;;16.50;14.57;;;18.60;54.10;;;;;;4955682;28;87548;-86
2023/02/15 06:56:38;;;;;;;15.60;13.90;;;18.60;54.10;;;;;;4955576;28;87814;-87
2023/02/15 06:59:04;;;;;;;17.35;15.10;;;18.60;54.00;;;;;;4956192;28;88314;-86
2023/02/15 07:01:29;;;;;;;16.67;14.45;;;18.60;54.00;;;;;;4934932;28;87355;-87
2023/02/15 07:12:40;;;;;;;18.20;14.48;;;18.60;54.00;;;;;;4946091;28;87485;-86
2023/02/15 07:13:43;;;;;;;18.02;13.93;;;18.60;53.90;;;;;;4943991;28;88192;-86
2023/02/15 07:16:09;;;;;;;15.68;13.82;;;18.60;53.20;;;;;;4952737;28;87427;-86
2023/02/15 07:18:35;;;;;;;16.90;13.55;;;18.70;53.40;;;;;;4949874;28;88506;-86
2023/02/15 07:21:01;;;;;;;20.58;12.60;;;18.70;52.60;;;;;;4945022;28;89055;-85
2023/02/15 07:23:31;;;;;;;20.05;13.85;;;19.00;50.80;;;;;;4928988;28;87512;-86
2023/02/15 07:26:01;;;;;;;19.20;13.98;;;19.00;52.20;;;;;;4947462;28;91687;-85
2023/02/15 07:28:27;;;;;;;19.10;13.02;;;19.00;52.30;;;;;;4948976;28;88602;-86
2023/02/15 07:30:53;;;;;;;21.38;13.25;;;19.40;51.10;;;;;;4955239;28;87751;-86
2023/02/15 07:33:24;;;;;;;18.75;12.27;;;19.60;50.10;;;;;;4959279;28;87175;-86
2023/02/15 07:35:51;;;;;;;17.08;11.82;;;19.80;49.20;;;;;;4958692;28;87102;-88
2023/02/15 07:38:18;;;;;;;21.92;13.18;;;19.80;50.60;;;;;;4958532;28;92284;-86
2023/02/15 07:40:50;;;;;;;21.20;13.18;;;19.90;50.40;;;;;;4959679;28;89006;-86
2023/02/15 07:43:15;;;;;;;19.33;12.10;;;20.00;51.00;;;;;;4941450;28;87414;-87
2023/02/15 07:45:41;;;;;;;17.05;12.07;;;20.00;51.20;;;;;;4953524;28;87467;-86
2023/02/15 07:48:07;;;;;;;19.73;13.07;;;20.00;51.20;;;;;;4958944;28;88309;-87
2023/02/15 07:50:34;;;;;;;17.00;12.30;;;20.00;51.30;;;;;;4959387;28;87973;-86
2023/02/15 07:53:19;;;;;;;17.30;11.57;;;20.00;51.30;;;;;;4958718;28;86941;-85
2023/02/15 07:55:45;;;;;;;17.30;11.27;;;20.00;51.40;;;;;;4957784;28;89247;-86
2023/02/15 07:58:10;;;;;;;18.60;12.13;;;20.00;51.70;;;;;;4940116;28;90997;-86
2023/02/15 08:00:56;;;;;;;15.68;11.43;;;20.00;51.90;;;;;;4958477;28;88288;-86
2023/02/15 08:03:28;;;;;;;16.88;11.38;;;20.00;52.00;;;;;;4958263;28;88293;-86
2023/02/15 08:06:00;;;;;;;17.35;12.45;;;20.00;52.10;;;;;;4957768;28;89232;-86
2023/02/15 08:08:35;;;;;;;18.75;11.85;;;19.90;52.20;;;;;;4959261;28;88884;-85
2023/02/15 08:14:23;;;;;;;19.88;11.32;;;20.00;52.10;;;;;;4955561;28;87474;-85
2023/02/15 08:16:59;;;;;;;16.23;11.40;;;20.00;51.80;;;;;;4957713;28;87381;-86
2023/02/15 08:19:31;;;;;;;18.77;10.90;;;20.10;52.70;;;;;;4957538;28;88820;-86
2023/02/15 08:22:02;;;;;;;16.75;10.63;;;20.10;51.60;;;;;;4957912;28;88403;-85
2023/02/15 08:24:31;;;;;;;18.75;11.63;;;20.10;51.50;;;;;;4958157;28;87301;-86
2023/02/15 08:26:58;;;;;;;20.87;11.00;;;20.10;51.50;;;;;;4955578;28;90494;-87
2023/02/15 08:29:27;;;;;;;16.80;10.40;;;20.20;51.80;;;;;;4958084;28;89478;-86
2023/02/15 08:31:58;;;;;;;21.45;10.82;;;20.20;51.70;;;;;;4937047;28;87898;-86
2023/02/15 08:41:37;;;;;;;16.98;10.10;;;20.20;51.40;;;;;;4930054;28;87337;-86
2023/02/15 08:44:05;;;;;;;19.13;11.10;;;20.20;51.70;;;;;;4952826;28;88378;-86
2023/02/15 08:46:35;;;;;;;19.58;10.80;;;20.20;51.90;;;;;;4954297;28;87977;-86
2023/02/15 08:49:02;;;;;;;20.80;10.70;;;20.20;51.90;;;;;;4953502;28;87436;-86
2023/02/15 08:51:30;;;;;;;19.52;11.60;;;20.20;51.80;;;;;;4953288;28;88070;-86
2023/02/15 08:53:58;;;;;;;20.65;10.23;;;20.20;52.00;;;;;;4943623;28;91378;-87
2023/02/15 08:56:31;;;;;;;23.23;11.52;;;20.20;52.20;;;;;;4954112;28;88011;-87
2023/02/15 08:58:57;;;;;;;26.10;11.93;;;20.20;52.50;;;;;;4957327;28;86949;-86
2023/02/15 09:01:28;;;;;;;21.15;11.27;;;20.20;52.60;;;;;;4957764;28;88858;-87
2023/02/15 09:04:00;;;;;;;20.77;11.32;;;20.30;52.70;;;;;;4959254;28;88365;-86
2023/02/15 09:10:02;;;;;;;22.10;11.13;;;20.20;52.90;;;;;;4958635;28;87212;-87
2023/02/15 09:12:28;;;;;;;20.95;10.55;;;20.40;53.20;;;;;;4956857;28;90048;-86
2023/02/15 09:14:54;;;;;;;26.13;11.32;;;20.40;53.10;;;;;;4955847;28;88374;-85
2023/02/15 09:17:19;;;;;;;20.58;10.88;;;20.50;53.00;;;;;;4957947;28;87376;-86
2023/02/15 09:19:45;;;;;;;26.05;12.25;;;20.60;53.10;;;;;;4957039;28;87275;-86
2023/02/15 09:22:31;;;;;;;24.02;12.30;;;20.60;53.00;;;;;;4956736;28;88450;-86
2023/02/15 09:24:56;;;;;;;25.63;11.38;;;20.60;52.90;;;;;;4956765;28;88983;-87
2023/02/15 09:27:22;;;;;;;25.75;11.32;;;20.60;52.10;;;;;;4938571;28;87712;-88
2023/02/15 09:29:47;;;;;;;25.15;13.07;;;20.60;51.80;;;;;;4957692;28;87940;-86
2023/02/15 09:32:17;;;;;;;27.58;13.73;;;20.60;51.30;;;;;;4956844;28;88313;-87
2023/02/15 09:34:42;;;;;;;30.95;14.90;;;20.50;50.90;;;;;;4956965;28;87982;-88
2023/02/15 09:37:08;;;;;;;24.83;14.57;;;20.50;50.00;;;;;;4956197;28;87177;-87
2023/02/15 09:39:38;;;;;;;33.65;15.43;;;20.40;49.50;;;;;;4945829;28;87416;-86
2023/02/15 09:42:12;;;;;;;27.08;14.93;;;20.40;49.50;;;;;;4955501;28;88661;-87
2023/02/15 09:44:58;;;;;;;34.90;15.30;;;20.40;50.10;;;;;;4956436;28;87398;-88
2023/02/15 09:48:07;;;;;;;30.55;14.65;;;20.40;50.20;;;;;;4956563;28;88178;-88
2023/02/15 09:50:46;;;;;;;27.17;13.40;;;20.40;50.50;;;;;;4956681;28;91890;-88
2023/02/15 10:00:31;;;;;;;21.75;11.40;;;20.40;50.60;;;;;;4955033;28;87334;-87
2023/02/15 10:03:13;;;;;;;26.63;12.75;;;20.50;50.60;;;;;;4956530;28;87070;-87
2023/02/15 10:06:01;;;;;;;24.00;11.07;;;20.60;50.20;;;;;;4957128;28;88465;-88
2023/02/15 10:08:41;;;;;;;23.85;11.23;;;20.60;49.90;;;;;;4957384;28;92309;-88
2023/02/15 10:14:51;;;;;;;25.05;11.15;;;20.70;50.30;;;;;;4956979;28;89364;-88
2023/02/15 10:17:37;;;;;;;19.40;11.70;;;20.70;50.00;;;;;;4956876;28;93857;-88
2023/02/15 10:20:50;;;;;;;21.75;12.02;;;20.70;49.10;;;;;;4956554;28;89136;-88
2023/02/15 10:23:34;;;;;;;20.85;12.15;;;20.80;49.10;;;;;;4876883;28;88230;-88
2023/02/15 10:33:09;;;;;;;22.45;12.13;;;20.90;46.60;;;;;;4878376;28;91383;-87
2023/02/15 10:35:35;;;;;;;20.73;13.43;;;20.90;45.60;;;;;;4879604;28;87638;-88
2023/02/15 10:38:02;;;;;;;78.45;29.33;;;20.90;45.60;;;;;;4876373;28;89489;-89
2023/02/15 10:40:33;;;;;;;113.05;36.08;;;20.90;45.20;;;;;;4876443;28;91768;-87
2023/02/15 10:43:04;;;;;;;120.95;38.40;;;20.90;45.40;;;;;;4876034;28;91560;-87
2023/02/15 10:45:56;;;;;;;108.55;37.38;;;20.90;45.00;;;;;;4875477;28;88801;-87
2023/02/15 10:48:34;;;;;;;114.43;37.30;;;21.00;45.60;;;;;;4876403;28;87617;-87
2023/02/15 10:51:02;;;;;;;105.20;34.42;;;21.00;46.30;;;;;;4875685;28;88341;-88
2023/02/15 10:53:31;;;;;;;111.68;36.83;;;21.00;46.40;;;;;;4875660;28;90826;-88
2023/02/15 10:56:05;;;;;;;109.07;34.17;;;21.00;46.60;;;;;;4876353;28;87255;-88
2023/02/15 10:58:37;;;;;;;113.90;34.42;;;21.10;46.70;;;;;;4875807;28;88523;-88
2023/02/15 11:01:11;;;;;;;115.28;36.22;;;21.00;46.80;;;;;;4954040;28;88619;-88
2023/02/15 11:03:57;;;;;;;117.38;39.15;;;21.00;46.90;;;;;;4957279;28;88344;-87
2023/02/15 11:07:12;;;;;;;117.30;37.40;;;21.10;47.10;;;;;;4956482;28;87385;-87
2023/02/15 11:09:46;;;;;;;103.90;35.53;;;21.20;47.20;;;;;;4957103;28;87744;-87
2023/02/15 11:12:16;;;;;;;113.22;36.65;;;21.20;47.20;;;;;;4956025;28;89556;-88
2023/02/15 11:14:50;;;;;;;111.68;36.35;;;21.20;47.40;;;;;;4957179;28;89605;-88
2023/02/15 11:17:27;;;;;;;112.57;35.95;;;21.20;47.40;;;;;;4956248;28;90503;-87
2023/02/15 11:20:46;;;;;;;94.22;34.35;;;21.20;47.40;;;;;;4956887;28;87710;-87
2023/02/15 11:23:18;;;;;;;106.57;33.80;;;21.20;47.60;;;;;;4899060;28;88207;-86
2023/02/15 11:25:56;;;;;;;98.85;33.08;;;21.20;47.60;;;;;;4883558;28;88259;-89
2023/02/15 11:28:29;;;;;;;105.38;35.63;;;21.20;47.50;;;;;;4882468;28;87269;-86
2023/02/15 11:30:56;;;;;;;97.45;33.72;;;21.30;47.70;;;;;;4881576;28;89815;-86
2023/02/15 11:47:01;;;;;;;94.82;32.95;;;21.70;49.50;;;;;;4799737;29;87656;-86
2023/02/15 11:49:29;;;;;;;94.82;34.65;;;21.70;49.90;;;;;;4804730;29;88235;-87
2023/02/15 11:51:56;;;;;;;102.78;34.92;;;21.80;49.80;;;;;;4811496;29;87755;-87
2023/02/15 11:54:30;;;;;;;93.55;33.97;;;21.80;50.90;;;;;;4834211;29;87698;-89
2023/02/15 12:07:22;;;;;;;91.68;31.45;;;21.80;51.10;;;;;;4831703;29;87298;-87
2023/02/15 12:10:11;;;;;;;79.72;30.25;;;21.80;51.70;;;;;;4841059;29;89211;-85
2023/02/15 12:12:38;;;;;;;85.47;29.15;;;21.70;51.50;;;;;;4853608;28;88711;-87
2023/02/15 12:15:09;;;;;;;85.30;31.48;;;21.70;50.80;;;;;;4917175;28;87429;-87
2023/02/15 12:18:17;;;;;;;94.28;30.52;;;21.70;50.90;;;;;;4916855;28;88905;-85
2023/02/15 12:20:43;;;;;;;73.60;28.63;;;21.60;51.10;;;;;;4860049;29;92983;-87
2023/02/15 12:23:15;;;;;;;85.35;28.98;;;21.60;52.10;;;;;;4880451;28;88027;-86
2023/02/15 12:25:54;;;;;;;83.70;29.23;;;21.70;51.60;;;;;;4898195;28;87310;-86
2023/02/15 12:28:25;;;;;;;76.05;29.10;;;21.70;51.80;;;;;;4897760;28;90528;-86
2023/02/15 12:30:52;;;;;;;76.70;29.08;;;21.80;52.00;;;;;;4897294;28;88485;-87
2023/02/15 12:33:23;;;;;;;76.65;28.23;;;21.80;51.80;;;;;;4878718;28;91549;-87
2023/02/15 12:36:00;;;;;;;72.85;28.50;;;21.90;51.90;;;;;;4878781;28;87796;-86
2023/02/15 12:38:27;;;;;;;64.60;25.02;;;21.90;51.90;;;;;;4897352;28;91627;-87
2023/02/15 12:41:03;;;;;;;62.35;26.63;;;21.90;52.00;;;;;;4897655;28;87567;-88
2023/02/15 12:43:37;;;;;;;65.53;26.63;;;21.90;52.00;;;;;;4896916;28;88907;-88
2023/02/15 12:46:25;;;;;;;67.40;25.50;;;21.90;51.90;;;;;;4897483;28;87709;-84
2023/02/15 12:49:09;;;;;;;63.40;24.95;;;21.90;52.00;;;;;;4897087;28;87458;-87
2023/02/15 12:51:57;;;;;;;67.97;25.02;;;21.90;52.10;;;;;;4897658;28;89462;-87
2023/02/15 12:54:28;;;;;;;63.70;24.30;;;21.90;52.20;;;;;;4897606;28;88028;-87
2023/02/15 13:00:18;;;;;;;60.58;24.40;;;21.90;52.30;;;;;;4937574;28;87535;-87
2023/02/15 13:02:52;;;;;;;60.53;25.17;;;22.00;52.10;;;;;;4938502;28;89619;-87
2023/02/15 13:05:23;;;;;;;60.65;23.85;;;22.10;52.10;;;;;;4938229;28;93188;-84
2023/02/15 13:07:54;;;;;;;69.30;25.55;;;22.10;51.80;;;;;;4937650;28;87261;-85
2023/02/15 13:10:24;;;;;;;56.10;21.67;;;22.20;52.00;;;;;;4937739;28;87861;-87
2023/02/15 13:12:53;;;;;;;66.45;24.08;;;22.30;51.10;;;;;;4937632;28;88335;-87
2023/02/15 13:15:36;;;;;;;59.13;24.27;;;22.30;51.30;;;;;;4943450;28;90178;-87
2023/02/15 13:18:03;;;;;;;55.53;22.20;;;22.30;51.50;;;;;;4948217;28;87591;-87
2023/02/15 13:20:29;;;;;;;53.83;22.30;;;22.30;51.70;;;;;;4938916;28;86711;-87
2023/02/15 13:23:16;;;;;;;56.03;22.73;;;22.20;51.80;;;;;;4925758;28;90227;-87
2023/02/15 13:25:50;;;;;;;50.17;21.15;;;22.20;52.10;;;;;;4925607;28;88670;-87
2023/02/15 13:28:20;;;;;;;56.92;22.08;;;22.20;52.10;;;;;;4942314;28;88169;-87
2023/02/15 13:30:49;;;;;;;61.90;24.92;;;22.20;52.30;;;;;;4944348;28;88839;-86
2023/02/15 13:36:54;;;;;;;53.50;21.15;;;22.20;52.30;;;;;;4937066;28;87375;-86
2023/02/15 13:39:26;;;;;;;45.08;20.83;;;22.10;51.90;;;;;;4937506;28;87585;-87
2023/02/15 13:41:55;;;;;;;45.83;20.25;;;22.10;51.50;;;;;;4938074;28;86995;-87
2023/02/15 13:48:20;;;;;;;49.67;20.55;;;22.10;52.20;;;;;;4932058;28;91374;-87
2023/02/15 13:50:55;;;;;;;48.13;19.38;;;22.10;51.90;;;;;;4937345;28;91903;-87
2023/02/15 13:53:39;;;;;;;46.03;19.63;;;22.10;51.90;;;;;;4938097;28;87455;-87
2023/02/15 13:56:14;;;;;;;43.63;18.88;;;22.20;51.90;;;;;;4937002;28;89501;-88
2023/02/15 13:59:10;;;;;;;46.47;19.52;;;22.30;51.80;;;;;;4937076;28;90326;-87
2023/02/15 14:02:10;;;;;;;45.30;18.48;;;22.30;51.50;;;;;;4937795;28;86781;-88
2023/02/15 14:05:05;;;;;;;42.78;18.35;;;22.30;51.50;;;;;;4937695;28;88982;-88
2023/02/15 14:07:45;;;;;;;45.25;19.38;;;22.30;50.80;;;;;;4936963;28;88612;-87
2023/02/15 14:10:17;;;;;;;41.25;17.90;;;22.30;51.00;;;;;;4936037;28;89093;-89
2023/02/15 14:12:51;;;;;;;41.70;18.27;;;22.20;51.40;;;;;;4936725;28;87402;-87
2023/02/15 14:16:03;;;;;;;37.50;17.30;;;22.20;51.50;;;;;;4937391;28;87461;-86
2023/02/15 14:18:46;;;;;;;43.30;17.48;;;22.20;51.40;;;;;;4876003;28;88633;-86
2023/02/15 14:21:21;;;;;;;45.38;19.10;;;22.20;51.90;;;;;;4860913;28;91795;-86
2023/02/15 14:24:01;;;;;;;44.80;17.52;;;22.00;51.40;;;;;;4858981;28;88249;-89
2023/02/15 14:29:59;;;;;;;37.28;16.70;;;21.90;50.90;;;;;;4875778;28;91685;-87
2023/02/15 14:32:35;;;;;;;35.72;16.25;;;22.00;49.90;;;;;;4878060;28;87954;-88
2023/02/15 14:35:04;;;;;;;39.60;16.10;;;21.90;49.40;;;;;;4860750;28;95926;-88
2023/02/15 14:37:42;;;;;;;57.50;21.27;;;21.80;49.60;;;;;;4879820;28;88278;-88
2023/02/15 14:47:07;;;;;;;60.60;20.10;;;21.80;52.10;;;;;;4879201;28;87500;-85
2023/02/15 14:49:37;;;;;;;48.65;19.48;;;21.90;52.40;;;;;;4915660;28;89400;-88
2023/02/15 14:52:10;;;;;;;56.00;20.45;;;21.90;52.80;;;;;;4939032;28;89095;-87
2023/02/15 14:54:36;;;;;;;51.75;19.65;;;21.90;53.70;;;;;;4939597;28;89908;-87
2023/02/15 14:57:05;;;;;;;51.95;20.80;;;21.90;54.30;;;;;;4939743;28;87408;-87
2023/02/15 15:06:27;;;;;;;47.10;18.80;;;22.00;54.60;;;;;;4937911;28;87320;-86
2023/02/15 15:08:59;;;;;;;50.60;19.67;;;22.00;55.30;;;;;;4939430;28;87587;-87
2023/02/15 15:11:28;;;;;;;47.08;19.65;;;22.00;55.40;;;;;;4940420;28;87946;-88
2023/02/15 15:13:59;;;;;;;51.80;19.67;;;22.00;55.60;;;;;;4938976;28;87719;-87
2023/02/15 15:16:31;;;;;;;45.13;19.15;;;22.00;55.70;;;;;;4938904;28;88438;-86
2023/02/15 15:18:58;;;;;;;50.45;19.80;;;22.00;55.60;;;;;;4939204;28;88654;-87
2023/02/15 15:21:48;;;;;;;52.50;19.20;;;22.10;55.60;;;;;;4930776;28;88069;-87
2023/02/15 15:27:52;;;;;;;50.25;19.27;;;22.30;55.50;;;;;;4936409;28;89717;-87
2023/02/15 15:30:17;;;;;;;48.95;18.05;;;22.40;55.50;;;;;;4933656;28;87469;-86
2023/02/15 15:32:58;;;;;;;48.22;18.42;;;22.40;55.50;;;;;;4935307;28;87330;-87
2023/02/15 15:35:58;;;;;;;46.25;17.83;;;22.50;55.60;;;;;;4933251;28;93626;-86
2023/02/15 15:38:33;;;;;;;46.17;19.13;;;22.50;55.50;;;;;;4935694;28;92629;-87
2023/02/15 15:41:28;;;;;;;50.67;18.98;;;22.50;55.70;;;;;;4937627;28;87084;-87
2023/02/15 15:44:00;;;;;;;45.67;17.92;;;22.40;55.90;;;;;;4938424;28;87369;-86
2023/02/15 15:46:30;;;;;;;37.72;17.58;;;22.40;56.10;;;;;;4936787;28;88350;-87
2023/02/15 15:49:20;;;;;;;42.13;15.77;;;22.40;56.20;;;;;;4945179;28;89427;-88
2023/02/15 15:51:46;;;;;;;39.38;17.17;;;22.40;56.30;;;;;;4956884;28;87412;-88
2023/02/15 15:54:18;;;;;;;34.72;15.85;;;22.30;56.50;;;;;;4958106;28;87397;-88
2023/02/15 15:56:49;;;;;;;33.33;14.88;;;22.30;55.30;;;;;;4958358;28;87654;-88
2023/02/15 15:59:21;;;;;;;40.53;16.77;;;22.30;55.60;;;;;;4947153;28;90543;-90
2023/02/15 16:01:48;;;;;;;43.88;15.15;;;22.20;56.00;;;;;;4957920;28;87481;-89
2023/02/15 16:04:25;;;;;;;39.25;16.45;;;22.20;56.20;;;;;;4958208;28;87354;-88
2023/02/15 16:06:50;;;;;;;40.90;15.23;;;22.20;56.50;;;;;;4957570;28;88711;-88
2023/02/15 16:09:22;;;;;;;42.00;15.85;;;22.20;56.60;;;;;;4955345;28;92198;-89
2023/02/15 16:12:02;;;;;;;35.42;16.30;;;22.10;56.70;;;;;;4958853;28;88304;-88
2023/02/15 16:14:39;;;;;;;44.47;16.88;;;22.20;56.90;;;;;;4956319;28;95734;-88
2023/02/15 16:17:08;;;;;;;40.22;16.92;;;22.10;56.90;;;;;;4956810;28;90588;-88
2023/02/15 16:19:41;;;;;;;33.80;14.48;;;22.20;56.90;;;;;;4940168;28;87797;-88